sensor_id;sensor_type;location;lat;lon;timestamp;P1;durP1;ratioP1;P2;durP2;ratioP2
35969;SDS011;22448;51.298;6.430;2024-03-23T00:54:12;14.43;;;2.97;;
35969;SDS011;22448;51.298;6.430;2024-03-23T00:56:38;16.58;;;3.53;;
35969;SDS011;22448;51.298;6.430;2024-03-23T00:59:04;15.77;;;3.30;;
35969;SDS011;22448;51.298;6.430;2024-03-23T01:01:31;19.83;;;3.38;;
35969;SDS011;22448;51.298;6.430;2024-03-23T01:03:57;13.68;;;3.90;;
35969;SDS011;22448;51.298;6.430;2024-03-23T01:06:23;14.45;;;3.47;;
35969;SDS011;22448;51.298;6.430;2024-03-23T01:08:49;16.92;;;3.10;;
35969;SDS011;22448;51.298;6.430;2024-03-23T01:11:15;9.10;;;2.60;;
35969;SDS011;22448;51.298;6.430;2024-03-23T01:13:41;15.63;;;3.10;;
35969;SDS011;22448;51.298;6.430;2024-03-23T01:16:07;13.77;;;3.15;;
35969;SDS011;22448;51.298;6.430;2024-03-23T01:18:34;14.25;;;3.25;;
35969;SDS011;22448;51.298;6.430;2024-03-23T01:21:00;18.02;;;3.38;;
35969;SDS011;22448;51.298;6.430;2024-03-23T01:23:26;17.92;;;3.53;;
35969;SDS011;22448;51.298;6.430;2024-03-23T01:25:52;10.52;;;3.38;;
35969;SDS011;22448;51.298;6.430;2024-03-23T01:28:19;13.25;;;3.45;;
35969;SDS011;22448;51.298;6.430;2024-03-23T01:30:47;16.15;;;3.75;;
35969;SDS011;22448;51.298;6.430;2024-03-23T01:33:13;10.60;;;2.80;;
35969;SDS011;22448;51.298;6.430;2024-03-23T01:35:40;16.25;;;2.50;;
35969;SDS011;22448;51.298;6.430;2024-03-23T01:38:06;17.58;;;2.80;;
35969;SDS011;22448;51.298;6.430;2024-03-23T01:40:33;15.15;;;3.45;;
35969;SDS011;22448;51.298;6.430;2024-03-23T01:43:02;17.45;;;3.20;;
35969;SDS011;22448;51.298;6.430;2024-03-23T01:45:30;20.63;;;3.60;;
35969;SDS011;22448;51.298;6.430;2024-03-23T01:47:58;10.35;;;3.03;;
35969;SDS011;22448;51.298;6.430;2024-03-23T01:50:25;20.20;;;4.05;;
35969;SDS011;22448;51.298;6.430;2024-03-23T01:52:52;13.98;;;4.30;;
35969;SDS011;22448;51.298;6.430;2024-03-23T01:55:19;18.05;;;3.92;;
35969;SDS011;22448;51.298;6.430;2024-03-23T01:57:45;28.60;;;4.55;;
35969;SDS011;22448;51.298;6.430;2024-03-23T02:00:12;16.08;;;3.75;;
35969;SDS011;22448;51.298;6.430;2024-03-23T02:02:45;16.33;;;4.07;;
35969;SDS011;22448;51.298;6.430;2024-03-23T02:05:12;14.13;;;3.78;;
35969;SDS011;22448;51.298;6.430;2024-03-23T02:07:39;16.00;;;3.17;;
35969;SDS011;22448;51.298;6.430;2024-03-23T02:10:07;22.25;;;3.60;;
35969;SDS011;22448;51.298;6.430;2024-03-23T02:12:35;12.85;;;3.10;;
35969;SDS011;22448;51.298;6.430;2024-03-23T02:15:02;20.65;;;3.67;;
35969;SDS011;22448;51.298;6.430;2024-03-23T02:17:29;21.73;;;3.35;;
35969;SDS011;22448;51.298;6.430;2024-03-23T02:19:57;17.85;;;3.72;;
35969;SDS011;22448;51.298;6.430;2024-03-23T02:22:23;17.45;;;3.83;;
35969;SDS011;22448;51.298;6.430;2024-03-23T02:24:50;17.45;;;5.20;;
35969;SDS011;22448;51.298;6.430;2024-03-23T02:27:16;20.90;;;3.70;;
35969;SDS011;22448;51.298;6.430;2024-03-23T02:29:42;22.27;;;3.90;;
35969;SDS011;22448;51.298;6.430;2024-03-23T02:32:08;23.48;;;3.72;;
35969;SDS011;22448;51.298;6.430;2024-03-23T02:34:35;20.63;;;3.67;;
35969;SDS011;22448;51.298;6.430;2024-03-23T02:37:01;16.67;;;3.65;;
35969;SDS011;22448;51.298;6.430;2024-03-23T02:39:27;18.92;;;4.43;;
35969;SDS011;22448;51.298;6.430;2024-03-23T02:41:54;17.10;;;4.32;;
35969;SDS011;22448;51.298;6.430;2024-03-23T02:44:20;17.83;;;3.88;;
35969;SDS011;22448;51.298;6.430;2024-03-23T02:46:46;21.02;;;4.22;;
35969;SDS011;22448;51.298;6.430;2024-03-23T02:49:12;18.60;;;4.22;;
35969;SDS011;22448;51.298;6.430;2024-03-23T02:51:39;22.48;;;3.85;;
35969;SDS011;22448;51.298;6.430;2024-03-23T02:54:06;19.70;;;4.03;;
35969;SDS011;22448;51.298;6.430;2024-03-23T02:56:32;20.95;;;4.85;;
35969;SDS011;22448;51.298;6.430;2024-03-23T02:58:58;20.58;;;3.60;;
35969;SDS011;22448;51.298;6.430;2024-03-23T03:01:25;25.75;;;5.13;;
35969;SDS011;22448;51.298;6.430;2024-03-23T03:03:51;24.25;;;4.40;;
35969;SDS011;22448;51.298;6.430;2024-03-23T03:06:24;12.40;;;4.50;;
35969;SDS011;22448;51.298;6.430;2024-03-23T03:08:51;17.20;;;4.10;;
35969;SDS011;22448;51.298;6.430;2024-03-23T03:11:17;18.90;;;4.82;;
35969;SDS011;22448;51.298;6.430;2024-03-23T03:13:43;20.67;;;4.15;;
35969;SDS011;22448;51.298;6.430;2024-03-23T03:16:10;15.38;;;3.90;;
35969;SDS011;22448;51.298;6.430;2024-03-23T03:18:36;23.02;;;4.32;;
35969;SDS011;22448;51.298;6.430;2024-03-23T03:21:03;29.30;;;5.25;;
35969;SDS011;22448;51.298;6.430;2024-03-23T03:23:32;27.38;;;4.75;;
35969;SDS011;22448;51.298;6.430;2024-03-23T03:25:59;18.13;;;4.47;;
35969;SDS011;22448;51.298;6.430;2024-03-23T03:28:25;18.60;;;3.90;;
35969;SDS011;22448;51.298;6.430;2024-03-23T03:30:51;23.48;;;4.95;;
35969;SDS011;22448;51.298;6.430;2024-03-23T03:33:18;21.73;;;4.97;;
35969;SDS011;22448;51.298;6.430;2024-03-23T03:35:44;19.77;;;4.65;;
35969;SDS011;22448;51.298;6.430;2024-03-23T03:38:11;22.45;;;4.95;;
35969;SDS011;22448;51.298;6.430;2024-03-23T03:40:37;25.58;;;4.95;;
35969;SDS011;22448;51.298;6.430;2024-03-23T03:43:03;22.52;;;4.85;;
35969;SDS011;22448;51.298;6.430;2024-03-23T03:45:29;15.57;;;5.38;;
35969;SDS011;22448;51.298;6.430;2024-03-23T03:47:56;21.15;;;5.13;;
35969;SDS011;22448;51.298;6.430;2024-03-23T03:50:22;14.88;;;4.30;;
35969;SDS011;22448;51.298;6.430;2024-03-23T03:52:48;16.50;;;5.32;;
35969;SDS011;22448;51.298;6.430;2024-03-23T03:55:14;17.10;;;5.45;;
35969;SDS011;22448;51.298;6.430;2024-03-23T03:57:41;26.90;;;5.75;;
35969;SDS011;22448;51.298;6.430;2024-03-23T04:00:07;25.73;;;5.32;;
35969;SDS011;22448;51.298;6.430;2024-03-23T04:02:37;27.27;;;6.28;;
35969;SDS011;22448;51.298;6.430;2024-03-23T04:05:04;24.50;;;5.93;;
35969;SDS011;22448;51.298;6.430;2024-03-23T04:07:30;28.02;;;6.68;;
35969;SDS011;22448;51.298;6.430;2024-03-23T04:09:57;26.85;;;6.45;;
35969;SDS011;22448;51.298;6.430;2024-03-23T04:12:23;24.85;;;5.88;;
35969;SDS011;22448;51.298;6.430;2024-03-23T04:14:49;29.60;;;6.40;;
35969;SDS011;22448;51.298;6.430;2024-03-23T04:17:15;21.15;;;6.32;;
35969;SDS011;22448;51.298;6.430;2024-03-23T04:19:42;32.45;;;8.38;;
35969;SDS011;22448;51.298;6.430;2024-03-23T04:22:09;29.90;;;8.15;;
35969;SDS011;22448;51.298;6.430;2024-03-23T04:24:35;35.05;;;7.82;;
35969;SDS011;22448;51.298;6.430;2024-03-23T04:27:02;24.92;;;8.25;;
35969;SDS011;22448;51.298;6.430;2024-03-23T04:29:28;26.73;;;9.25;;
35969;SDS011;22448;51.298;6.430;2024-03-23T04:31:54;31.90;;;9.52;;
35969;SDS011;22448;51.298;6.430;2024-03-23T04:34:21;23.48;;;9.32;;
35969;SDS011;22448;51.298;6.430;2024-03-23T04:36:48;27.70;;;9.63;;
35969;SDS011;22448;51.298;6.430;2024-03-23T04:39:14;30.52;;;10.00;;
35969;SDS011;22448;51.298;6.430;2024-03-23T04:41:41;38.05;;;9.15;;
35969;SDS011;22448;51.298;6.430;2024-03-23T04:44:07;28.77;;;8.45;;
35969;SDS011;22448;51.298;6.430;2024-03-23T04:46:33;28.27;;;9.40;;
35969;SDS011;22448;51.298;6.430;2024-03-23T04:48:59;33.97;;;9.27;;
35969;SDS011;22448;51.298;6.430;2024-03-23T04:51:25;28.42;;;9.82;;
35969;SDS011;22448;51.298;6.430;2024-03-23T04:53:52;31.85;;;9.85;;
35969;SDS011;22448;51.298;6.430;2024-03-23T04:56:18;34.42;;;9.88;;
35969;SDS011;22448;51.298;6.430;2024-03-23T04:58:44;36.00;;;9.88;;
35969;SDS011;22448;51.298;6.430;2024-03-23T05:01:11;34.65;;;9.38;;
35969;SDS011;22448;51.298;6.430;2024-03-23T05:03:37;28.77;;;9.02;;
35969;SDS011;22448;51.298;6.430;2024-03-23T05:06:03;28.80;;;8.98;;
35969;SDS011;22448;51.298;6.430;2024-03-23T05:08:31;33.15;;;11.27;;
35969;SDS011;22448;51.298;6.430;2024-03-23T05:10:57;33.38;;;10.23;;
35969;SDS011;22448;51.298;6.430;2024-03-23T05:13:23;29.67;;;11.05;;
35969;SDS011;22448;51.298;6.430;2024-03-23T05:15:53;35.97;;;11.02;;
35969;SDS011;22448;51.298;6.430;2024-03-23T05:18:20;41.05;;;13.00;;
35969;SDS011;22448;51.298;6.430;2024-03-23T05:20:47;43.72;;;14.70;;
35969;SDS011;22448;51.298;6.430;2024-03-23T05:23:13;47.60;;;16.85;;
35969;SDS011;22448;51.298;6.430;2024-03-23T05:25:39;40.20;;;15.75;;
35969;SDS011;22448;51.298;6.430;2024-03-23T05:28:05;39.03;;;16.17;;
35969;SDS011;22448;51.298;6.430;2024-03-23T05:30:32;37.03;;;16.75;;
35969;SDS011;22448;51.298;6.430;2024-03-23T05:32:58;44.03;;;17.00;;
35969;SDS011;22448;51.298;6.430;2024-03-23T05:35:24;32.70;;;15.55;;
35969;SDS011;22448;51.298;6.430;2024-03-23T05:37:51;45.15;;;17.35;;
35969;SDS011;22448;51.298;6.430;2024-03-23T05:40:17;39.95;;;15.88;;
35969;SDS011;22448;51.298;6.430;2024-03-23T05:42:43;48.30;;;15.95;;
35969;SDS011;22448;51.298;6.430;2024-03-23T05:45:09;47.47;;;17.02;;
35969;SDS011;22448;51.298;6.430;2024-03-23T05:47:36;45.08;;;16.30;;
35969;SDS011;22448;51.298;6.430;2024-03-23T05:50:03;42.00;;;16.17;;
35969;SDS011;22448;51.298;6.430;2024-03-23T05:52:29;37.47;;;15.27;;
35969;SDS011;22448;51.298;6.430;2024-03-23T05:54:56;39.53;;;15.55;;
35969;SDS011;22448;51.298;6.430;2024-03-23T05:57:22;48.45;;;16.45;;
35969;SDS011;22448;51.298;6.430;2024-03-23T05:59:48;33.80;;;13.90;;
35969;SDS011;22448;51.298;6.430;2024-03-23T06:02:14;40.15;;;14.98;;
35969;SDS011;22448;51.298;6.430;2024-03-23T06:04:40;43.40;;;14.68;;
35969;SDS011;22448;51.298;6.430;2024-03-23T06:07:06;51.28;;;16.55;;
35969;SDS011;22448;51.298;6.430;2024-03-23T06:09:42;49.78;;;15.68;;
35969;SDS011;22448;51.298;6.430;2024-03-23T06:12:08;44.28;;;16.08;;
35969;SDS011;22448;51.298;6.430;2024-03-23T06:14:35;46.95;;;17.00;;
35969;SDS011;22448;51.298;6.430;2024-03-23T06:17:01;42.72;;;15.13;;
35969;SDS011;22448;51.298;6.430;2024-03-23T06:19:27;33.92;;;12.63;;
35969;SDS011;22448;51.298;6.430;2024-03-23T06:21:54;26.65;;;10.32;;
35969;SDS011;22448;51.298;6.430;2024-03-23T06:24:21;23.77;;;8.00;;
35969;SDS011;22448;51.298;6.430;2024-03-23T06:26:47;31.40;;;7.28;;
35969;SDS011;22448;51.298;6.430;2024-03-23T06:29:14;22.67;;;7.57;;
35969;SDS011;22448;51.298;6.430;2024-03-23T06:31:40;21.33;;;5.82;;
35969;SDS011;22448;51.298;6.430;2024-03-23T06:34:06;18.92;;;6.38;;
35969;SDS011;22448;51.298;6.430;2024-03-23T06:36:32;17.95;;;5.85;;
35969;SDS011;22448;51.298;6.430;2024-03-23T06:38:58;24.45;;;6.85;;
35969;SDS011;22448;51.298;6.430;2024-03-23T06:41:25;16.70;;;5.57;;
35969;SDS011;22448;51.298;6.430;2024-03-23T06:43:51;19.15;;;6.07;;
35969;SDS011;22448;51.298;6.430;2024-03-23T06:46:18;19.23;;;5.47;;
35969;SDS011;22448;51.298;6.430;2024-03-23T06:48:47;17.02;;;5.72;;
35969;SDS011;22448;51.298;6.430;2024-03-23T06:51:13;23.10;;;6.90;;
35969;SDS011;22448;51.298;6.430;2024-03-23T06:53:39;29.42;;;6.80;;
35969;SDS011;22448;51.298;6.430;2024-03-23T06:56:05;14.60;;;6.03;;
35969;SDS011;22448;51.298;6.430;2024-03-23T06:58:32;22.50;;;5.70;;
35969;SDS011;22448;51.298;6.430;2024-03-23T07:00:58;16.23;;;5.75;;
35969;SDS011;22448;51.298;6.430;2024-03-23T07:03:24;19.52;;;6.45;;
35969;SDS011;22448;51.298;6.430;2024-03-23T07:05:51;24.27;;;6.80;;
35969;SDS011;22448;51.298;6.430;2024-03-23T07:08:17;19.48;;;5.75;;
35969;SDS011;22448;51.298;6.430;2024-03-23T07:10:47;19.30;;;6.22;;
35969;SDS011;22448;51.298;6.430;2024-03-23T07:13:14;24.23;;;6.22;;
35969;SDS011;22448;51.298;6.430;2024-03-23T07:15:40;23.10;;;6.55;;
35969;SDS011;22448;51.298;6.430;2024-03-23T07:18:06;19.73;;;6.72;;
35969;SDS011;22448;51.298;6.430;2024-03-23T07:20:32;22.80;;;6.60;;
35969;SDS011;22448;51.298;6.430;2024-03-23T07:22:59;27.25;;;6.70;;
35969;SDS011;22448;51.298;6.430;2024-03-23T07:25:24;23.85;;;6.53;;
35969;SDS011;22448;51.298;6.430;2024-03-23T07:27:55;22.95;;;6.50;;
35969;SDS011;22448;51.298;6.430;2024-03-23T07:30:21;22.25;;;7.25;;
35969;SDS011;22448;51.298;6.430;2024-03-23T07:32:48;23.10;;;7.13;;
35969;SDS011;22448;51.298;6.430;2024-03-23T07:35:14;24.38;;;7.05;;
35969;SDS011;22448;51.298;6.430;2024-03-23T07:37:40;21.23;;;6.57;;
35969;SDS011;22448;51.298;6.430;2024-03-23T07:40:07;16.95;;;6.72;;
35969;SDS011;22448;51.298;6.430;2024-03-23T07:42:34;23.80;;;6.43;;
35969;SDS011;22448;51.298;6.430;2024-03-23T07:45:00;20.40;;;6.55;;
35969;SDS011;22448;51.298;6.430;2024-03-23T07:47:26;22.10;;;6.40;;
35969;SDS011;22448;51.298;6.430;2024-03-23T07:49:52;26.13;;;6.45;;
35969;SDS011;22448;51.298;6.430;2024-03-23T07:52:18;20.33;;;5.10;;
35969;SDS011;22448;51.298;6.430;2024-03-23T07:54:44;25.40;;;6.15;;
35969;SDS011;22448;51.298;6.430;2024-03-23T07:57:11;21.45;;;5.28;;
35969;SDS011;22448;51.298;6.430;2024-03-23T07:59:37;20.75;;;6.13;;
35969;SDS011;22448;51.298;6.430;2024-03-23T08:02:03;24.58;;;5.90;;
35969;SDS011;22448;51.298;6.430;2024-03-23T08:04:30;18.83;;;5.07;;
35969;SDS011;22448;51.298;6.430;2024-03-23T08:06:57;22.42;;;5.07;;
35969;SDS011;22448;51.298;6.430;2024-03-23T08:09:23;17.52;;;4.75;;
35969;SDS011;22448;51.298;6.430;2024-03-23T08:11:49;21.92;;;5.00;;
35969;SDS011;22448;51.298;6.430;2024-03-23T08:14:15;17.85;;;5.20;;
35969;SDS011;22448;51.298;6.430;2024-03-23T08:16:42;20.80;;;5.50;;
35969;SDS011;22448;51.298;6.430;2024-03-23T08:19:14;28.63;;;6.27;;
35969;SDS011;22448;51.298;6.430;2024-03-23T08:21:40;24.73;;;4.95;;
35969;SDS011;22448;51.298;6.430;2024-03-23T08:24:07;18.95;;;4.53;;
35969;SDS011;22448;51.298;6.430;2024-03-23T08:26:33;21.50;;;5.03;;
35969;SDS011;22448;51.298;6.430;2024-03-23T08:28:59;23.77;;;5.35;;
35969;SDS011;22448;51.298;6.430;2024-03-23T08:31:25;29.15;;;6.32;;
35969;SDS011;22448;51.298;6.430;2024-03-23T08:33:52;18.48;;;4.93;;
35969;SDS011;22448;51.298;6.430;2024-03-23T08:36:18;15.75;;;5.18;;
35969;SDS011;22448;51.298;6.430;2024-03-23T08:38:44;11.82;;;4.85;;
35969;SDS011;22448;51.298;6.430;2024-03-23T08:41:10;20.85;;;5.30;;
35969;SDS011;22448;51.298;6.430;2024-03-23T08:43:37;18.55;;;5.15;;
35969;SDS011;22448;51.298;6.430;2024-03-23T08:46:11;20.70;;;6.22;;
35969;SDS011;22448;51.298;6.430;2024-03-23T08:48:39;16.38;;;4.80;;
35969;SDS011;22448;51.298;6.430;2024-03-23T08:51:09;23.30;;;5.20;;
35969;SDS011;22448;51.298;6.430;2024-03-23T08:53:36;16.05;;;4.50;;
35969;SDS011;22448;51.298;6.430;2024-03-23T08:56:03;15.18;;;4.72;;
35969;SDS011;22448;51.298;6.430;2024-03-23T08:58:32;12.88;;;3.58;;
35969;SDS011;22448;51.298;6.430;2024-03-23T09:01:08;18.02;;;4.57;;
35969;SDS011;22448;51.298;6.430;2024-03-23T09:03:36;15.88;;;3.47;;
35969;SDS011;22448;51.298;6.430;2024-03-23T09:06:06;20.98;;;3.88;;
35969;SDS011;22448;51.298;6.430;2024-03-23T09:08:34;17.70;;;3.67;;
35969;SDS011;22448;51.298;6.430;2024-03-23T09:11:05;18.23;;;4.15;;
35969;SDS011;22448;51.298;6.430;2024-03-23T09:13:33;13.55;;;3.80;;
35969;SDS011;22448;51.298;6.430;2024-03-23T09:16:03;18.83;;;3.85;;
35969;SDS011;22448;51.298;6.430;2024-03-23T09:18:34;18.77;;;3.58;;
35969;SDS011;22448;51.298;6.430;2024-03-23T09:21:01;14.32;;;4.10;;
35969;SDS011;22448;51.298;6.430;2024-03-23T09:23:28;17.90;;;5.00;;
35969;SDS011;22448;51.298;6.430;2024-03-23T09:25:54;12.82;;;3.50;;
35969;SDS011;22448;51.298;6.430;2024-03-23T09:28:20;23.42;;;4.85;;
35969;SDS011;22448;51.298;6.430;2024-03-23T09:30:48;17.40;;;4.75;;
35969;SDS011;22448;51.298;6.430;2024-03-23T09:33:14;18.33;;;4.15;;
35969;SDS011;22448;51.298;6.430;2024-03-23T09:35:41;19.77;;;4.85;;
35969;SDS011;22448;51.298;6.430;2024-03-23T09:38:08;17.88;;;4.03;;
35969;SDS011;22448;51.298;6.430;2024-03-23T09:40:44;16.50;;;3.53;;
35969;SDS011;22448;51.298;6.430;2024-03-23T09:43:11;17.17;;;3.08;;
35969;SDS011;22448;51.298;6.430;2024-03-23T09:45:40;18.27;;;3.75;;
35969;SDS011;22448;51.298;6.430;2024-03-23T09:48:08;14.70;;;3.55;;
35969;SDS011;22448;51.298;6.430;2024-03-23T09:50:38;13.43;;;2.70;;
35969;SDS011;22448;51.298;6.430;2024-03-23T09:53:05;14.18;;;2.67;;
35969;SDS011;22448;51.298;6.430;2024-03-23T09:55:33;17.83;;;3.30;;
35969;SDS011;22448;51.298;6.430;2024-03-23T09:58:01;16.83;;;3.58;;
35969;SDS011;22448;51.298;6.430;2024-03-23T10:00:28;7.20;;;2.20;;
35969;SDS011;22448;51.298;6.430;2024-03-23T10:02:55;8.27;;;2.35;;
35969;SDS011;22448;51.298;6.430;2024-03-23T10:05:22;10.48;;;2.45;;
35969;SDS011;22448;51.298;6.430;2024-03-23T10:07:49;7.80;;;2.20;;
35969;SDS011;22448;51.298;6.430;2024-03-23T10:10:16;14.15;;;2.67;;
35969;SDS011;22448;51.298;6.430;2024-03-23T10:12:46;8.15;;;2.45;;
35969;SDS011;22448;51.298;6.430;2024-03-23T10:17:49;7.07;;;2.10;;
35969;SDS011;22448;51.298;6.430;2024-03-23T10:20:19;17.40;;;2.28;;
35969;SDS011;22448;51.298;6.430;2024-03-23T10:22:48;8.80;;;1.85;;
35969;SDS011;22448;51.298;6.430;2024-03-23T10:25:15;5.22;;;1.10;;
35969;SDS011;22448;51.298;6.430;2024-03-23T10:27:41;5.95;;;1.17;;
35969;SDS011;22448;51.298;6.430;2024-03-23T10:30:12;4.30;;;0.70;;
35969;SDS011;22448;51.298;6.430;2024-03-23T10:32:42;4.70;;;1.33;;
35969;SDS011;22448;51.298;6.430;2024-03-23T10:35:16;3.55;;;1.15;;
35969;SDS011;22448;51.298;6.430;2024-03-23T10:37:48;3.80;;;0.68;;
35969;SDS011;22448;51.298;6.430;2024-03-23T10:40:17;4.97;;;0.75;;
35969;SDS011;22448;51.298;6.430;2024-03-23T10:42:46;1.02;;;0.60;;
35969;SDS011;22448;51.298;6.430;2024-03-23T10:45:12;6.32;;;1.30;;
35969;SDS011;22448;51.298;6.430;2024-03-23T10:47:38;7.90;;;1.35;;
35969;SDS011;22448;51.298;6.430;2024-03-23T10:50:04;9.48;;;1.80;;
35969;SDS011;22448;51.298;6.430;2024-03-23T10:52:32;5.25;;;1.65;;
35969;SDS011;22448;51.298;6.430;2024-03-23T10:54:59;12.32;;;2.33;;
35969;SDS011;22448;51.298;6.430;2024-03-23T10:57:31;6.13;;;2.28;;
35969;SDS011;22448;51.298;6.430;2024-03-23T11:00:03;5.53;;;1.60;;
35969;SDS011;22448;51.298;6.430;2024-03-23T11:02:31;9.60;;;2.50;;
35969;SDS011;22448;51.298;6.430;2024-03-23T11:04:57;5.70;;;2.00;;
35969;SDS011;22448;51.298;6.430;2024-03-23T11:09:49;5.35;;;1.95;;
35969;SDS011;22448;51.298;6.430;2024-03-23T11:17:19;10.10;;;3.42;;
35969;SDS011;22448;51.298;6.430;2024-03-23T11:20:02;9.73;;;2.55;;
35969;SDS011;22448;51.298;6.430;2024-03-23T11:25:03;10.23;;;3.30;;
35969;SDS011;22448;51.298;6.430;2024-03-23T11:27:37;12.52;;;3.22;;
35969;SDS011;22448;51.298;6.430;2024-03-23T11:30:16;8.40;;;2.72;;
35969;SDS011;22448;51.298;6.430;2024-03-23T11:32:44;10.40;;;2.40;;
35969;SDS011;22448;51.298;6.430;2024-03-23T11:35:24;5.82;;;1.65;;
35969;SDS011;22448;51.298;6.430;2024-03-23T11:38:04;4.65;;;1.60;;
35969;SDS011;22448;51.298;6.430;2024-03-23T11:43:11;10.65;;;1.90;;
35969;SDS011;22448;51.298;6.430;2024-03-23T11:45:39;8.38;;;2.13;;
35969;SDS011;22448;51.298;6.430;2024-03-23T11:48:09;4.53;;;1.60;;
35969;SDS011;22448;51.298;6.430;2024-03-23T11:50:37;10.60;;;2.40;;
35969;SDS011;22448;51.298;6.430;2024-03-23T11:55:39;9.02;;;2.20;;
35969;SDS011;22448;51.298;6.430;2024-03-23T11:58:18;7.40;;;2.78;;
35969;SDS011;22448;51.298;6.430;2024-03-23T12:03:24;12.50;;;2.55;;
35969;SDS011;22448;51.298;6.430;2024-03-23T12:05:55;9.10;;;2.72;;
35969;SDS011;22448;51.298;6.430;2024-03-23T12:08:25;14.50;;;3.03;;
35969;SDS011;22448;51.298;6.430;2024-03-23T12:11:04;9.95;;;2.80;;
35969;SDS011;22448;51.298;6.430;2024-03-23T12:13:31;9.07;;;2.30;;
35969;SDS011;22448;51.298;6.430;2024-03-23T12:16:13;11.65;;;2.83;;
35969;SDS011;22448;51.298;6.430;2024-03-23T12:18:42;10.30;;;2.67;;
35969;SDS011;22448;51.298;6.430;2024-03-23T12:21:18;12.05;;;4.03;;
35969;SDS011;22448;51.298;6.430;2024-03-23T12:23:44;6.63;;;1.70;;
35969;SDS011;22448;51.298;6.430;2024-03-23T12:26:12;12.13;;;1.90;;
35969;SDS011;22448;51.298;6.430;2024-03-23T12:28:38;13.63;;;3.40;;
35969;SDS011;22448;51.298;6.430;2024-03-23T12:31:05;8.60;;;1.90;;
35969;SDS011;22448;51.298;6.430;2024-03-23T12:33:31;9.52;;;1.90;;
35969;SDS011;22448;51.298;6.430;2024-03-23T12:35:57;9.77;;;1.83;;
35969;SDS011;22448;51.298;6.430;2024-03-23T12:38:23;8.23;;;2.00;;
35969;SDS011;22448;51.298;6.430;2024-03-23T12:40:50;8.73;;;2.00;;
35969;SDS011;22448;51.298;6.430;2024-03-23T12:43:16;9.50;;;2.00;;
35969;SDS011;22448;51.298;6.430;2024-03-23T12:45:49;7.78;;;1.38;;
35969;SDS011;22448;51.298;6.430;2024-03-23T12:48:16;7.10;;;1.52;;
35969;SDS011;22448;51.298;6.430;2024-03-23T12:50:42;5.40;;;1.10;;
35969;SDS011;22448;51.298;6.430;2024-03-23T12:53:09;3.70;;;0.80;;
35969;SDS011;22448;51.298;6.430;2024-03-23T12:55:35;3.15;;;0.93;;
35969;SDS011;22448;51.298;6.430;2024-03-23T12:58:02;8.45;;;1.35;;
35969;SDS011;22448;51.298;6.430;2024-03-23T13:00:28;9.45;;;1.35;;
35969;SDS011;22448;51.298;6.430;2024-03-23T13:02:55;5.10;;;1.23;;
35969;SDS011;22448;51.298;6.430;2024-03-23T13:05:21;7.88;;;2.15;;
35969;SDS011;22448;51.298;6.430;2024-03-23T13:07:47;7.55;;;1.23;;
35969;SDS011;22448;51.298;6.430;2024-03-23T13:10:13;5.05;;;1.25;;
35969;SDS011;22448;51.298;6.430;2024-03-23T13:12:40;4.93;;;1.55;;
35969;SDS011;22448;51.298;6.430;2024-03-23T13:15:08;6.90;;;1.73;;
35969;SDS011;22448;51.298;6.430;2024-03-23T13:17:34;2.08;;;0.80;;
35969;SDS011;22448;51.298;6.430;2024-03-23T13:20:01;3.03;;;0.80;;
35969;SDS011;22448;51.298;6.430;2024-03-23T13:22:27;5.50;;;1.13;;
35969;SDS011;22448;51.298;6.430;2024-03-23T13:24:53;4.13;;;0.93;;
35969;SDS011;22448;51.298;6.430;2024-03-23T13:27:20;4.43;;;1.00;;
35969;SDS011;22448;51.298;6.430;2024-03-23T13:29:46;5.80;;;1.15;;
35969;SDS011;22448;51.298;6.430;2024-03-23T13:32:12;7.97;;;1.27;;
35969;SDS011;22448;51.298;6.430;2024-03-23T13:34:39;5.38;;;1.17;;
35969;SDS011;22448;51.298;6.430;2024-03-23T13:37:05;7.28;;;1.20;;
35969;SDS011;22448;51.298;6.430;2024-03-23T13:39:33;4.20;;;1.08;;
35969;SDS011;22448;51.298;6.430;2024-03-23T13:41:59;10.18;;;1.67;;
35969;SDS011;22448;51.298;6.430;2024-03-23T13:44:25;5.93;;;1.17;;
35969;SDS011;22448;51.298;6.430;2024-03-23T13:46:51;6.90;;;1.42;;
35969;SDS011;22448;51.298;6.430;2024-03-23T13:49:25;9.18;;;1.30;;
35969;SDS011;22448;51.298;6.430;2024-03-23T13:51:53;8.98;;;1.50;;
35969;SDS011;22448;51.298;6.430;2024-03-23T13:56:52;7.30;;;1.70;;
35969;SDS011;22448;51.298;6.430;2024-03-23T13:59:20;10.40;;;2.30;;
35969;SDS011;22448;51.298;6.430;2024-03-23T14:01:47;6.20;;;1.50;;
35969;SDS011;22448;51.298;6.430;2024-03-23T14:04:13;4.70;;;1.40;;
35969;SDS011;22448;51.298;6.430;2024-03-23T14:06:43;6.13;;;1.60;;
35969;SDS011;22448;51.298;6.430;2024-03-23T14:09:12;7.95;;;1.50;;
35969;SDS011;22448;51.298;6.430;2024-03-23T14:11:39;8.70;;;1.33;;
35969;SDS011;22448;51.298;6.430;2024-03-23T14:14:07;10.30;;;1.58;;
35969;SDS011;22448;51.298;6.430;2024-03-23T14:16:33;5.32;;;1.40;;
35969;SDS011;22448;51.298;6.430;2024-03-23T14:18:59;4.25;;;1.25;;
35969;SDS011;22448;51.298;6.430;2024-03-23T14:21:25;5.63;;;1.27;;
35969;SDS011;22448;51.298;6.430;2024-03-23T14:23:52;3.33;;;1.42;;
35969;SDS011;22448;51.298;6.430;2024-03-23T14:26:19;7.97;;;1.50;;
35969;SDS011;22448;51.298;6.430;2024-03-23T14:28:45;6.72;;;1.52;;
35969;SDS011;22448;51.298;6.430;2024-03-23T14:31:11;5.07;;;1.60;;
35969;SDS011;22448;51.298;6.430;2024-03-23T14:33:38;3.63;;;1.35;;
35969;SDS011;22448;51.298;6.430;2024-03-23T14:36:07;24.75;;;10.00;;
35969;SDS011;22448;51.298;6.430;2024-03-23T14:38:33;5.60;;;1.52;;
35969;SDS011;22448;51.298;6.430;2024-03-23T14:41:00;10.27;;;2.03;;
35969;SDS011;22448;51.298;6.430;2024-03-23T14:43:27;7.15;;;1.55;;
35969;SDS011;22448;51.298;6.430;2024-03-23T14:46:06;7.47;;;2.13;;
35969;SDS011;22448;51.298;6.430;2024-03-23T14:48:40;5.70;;;1.55;;
35969;SDS011;22448;51.298;6.430;2024-03-23T14:51:08;5.53;;;1.65;;
35969;SDS011;22448;51.298;6.430;2024-03-23T14:53:35;7.22;;;1.30;;
35969;SDS011;22448;51.298;6.430;2024-03-23T14:56:05;5.32;;;1.38;;
35969;SDS011;22448;51.298;6.430;2024-03-23T14:58:31;6.95;;;1.35;;
35969;SDS011;22448;51.298;6.430;2024-03-23T15:01:03;2.97;;;0.95;;
35969;SDS011;22448;51.298;6.430;2024-03-23T15:03:39;7.25;;;1.20;;
35969;SDS011;22448;51.298;6.430;2024-03-23T15:06:06;7.00;;;1.70;;
35969;SDS011;22448;51.298;6.430;2024-03-23T15:08:34;4.78;;;1.67;;
35969;SDS011;22448;51.298;6.430;2024-03-23T15:11:02;7.13;;;1.40;;
35969;SDS011;22448;51.298;6.430;2024-03-23T15:13:34;6.93;;;1.50;;
35969;SDS011;22448;51.298;6.430;2024-03-23T15:16:04;11.43;;;2.17;;
35969;SDS011;22448;51.298;6.430;2024-03-23T15:18:31;5.57;;;1.83;;
35969;SDS011;22448;51.298;6.430;2024-03-23T15:20:59;5.97;;;1.25;;
35969;SDS011;22448;51.298;6.430;2024-03-23T15:23:31;7.30;;;1.70;;
35969;SDS011;22448;51.298;6.430;2024-03-23T15:25:58;7.40;;;1.48;;
35969;SDS011;22448;51.298;6.430;2024-03-23T15:28:26;5.97;;;1.42;;
35969;SDS011;22448;51.298;6.430;2024-03-23T15:31:04;4.47;;;1.33;;
35969;SDS011;22448;51.298;6.430;2024-03-23T15:33:31;5.22;;;1.08;;
35969;SDS011;22448;51.298;6.430;2024-03-23T15:36:00;6.40;;;1.45;;
35969;SDS011;22448;51.298;6.430;2024-03-23T15:38:27;12.52;;;1.45;;
35969;SDS011;22448;51.298;6.430;2024-03-23T15:40:55;8.30;;;2.00;;
35969;SDS011;22448;51.298;6.430;2024-03-23T15:43:20;3.70;;;1.10;;
35969;SDS011;22448;51.298;6.430;2024-03-23T15:45:56;3.17;;;1.38;;
35969;SDS011;22448;51.298;6.430;2024-03-23T15:48:25;3.78;;;1.02;;
35969;SDS011;22448;51.298;6.430;2024-03-23T15:50:56;3.40;;;1.40;;
35969;SDS011;22448;51.298;6.430;2024-03-23T15:53:22;3.60;;;1.67;;
35969;SDS011;22448;51.298;6.430;2024-03-23T15:55:56;5.03;;;1.40;;